Time;durP1;ratioP1;P1;durP2;ratioP2;P2;SDS_P1;SDS_P2;PMS_P1;PMS_P2;Temp;Humidity;BMP_temperature;BMP_pressure;BME280_temperature;BME280_humidity;BME280_pressure;Samples;Min_cycle;Max_cycle;Signal;HPM_P1;HPM_P2
2023/07/19 00:01:33;;;;;;;2.28;1.38;;;;;;;-145.63;57.45;39035.97;5023749;28;20333;-67
2023/07/19 00:03:59;;;;;;;1.50;1.40;;;;;;;-145.63;57.59;39012.50;5023596;28;20022;-67
2023/07/19 00:06:25;;;;;;;1.80;1.42;;;;;;;-145.63;57.30;39039.88;5023687;28;20041;-66
2023/07/19 00:08:50;;;;;;;1.45;1.30;;;;;;;-145.63;57.78;39014.47;5005626;28;20026;-67
2023/07/19 00:11:17;;;;;;;2.90;1.40;;;;;;;-145.63;57.84;39080.97;5023507;28;20026;-67
2023/07/19 00:13:42;;;;;;;2.17;1.25;;;;;;;-145.63;57.32;39035.97;5006092;28;20093;-67
2023/07/19 00:16:08;;;;;;;3.72;1.30;;;;;;;-145.63;57.45;39030.13;5023517;28;20030;-67
2023/07/19 00:18:34;;;;;;;2.53;1.20;;;;;;;-145.63;57.43;39035.97;5023548;28;20026;-67
2023/07/19 00:21:00;;;;;;;2.28;1.25;;;;;;;-145.63;57.47;39024.25;5023517;28;20040;-67
2023/07/19 00:23:26;;;;;;;1.27;1.02;;;;;;;-145.63;57.42;39006.66;5023272;28;20041;-67
2023/07/19 00:25:51;;;;;;;1.40;1.30;;;;;;;-145.63;57.43;38983.19;5005791;28;20074;-66
2023/07/19 00:28:17;;;;;;;2.65;1.35;;;;;;;-145.63;57.32;39032.06;5023392;28;20132;-67
2023/07/19 00:30:43;;;;;;;0.90;0.90;;;;;;;-145.63;57.05;39012.50;5023012;28;20097;-67
2023/07/19 00:33:08;;;;;;;3.42;1.40;;;;;;;-145.63;57.28;39051.63;5023446;28;20026;-67
2023/07/19 00:35:40;;;;;;;3.30;1.35;;;;;;;-145.63;57.64;38267.50;5023245;28;20311;-67
2023/07/19 00:38:06;;;;;;;1.45;1.35;;;;;;;-145.63;57.51;39055.53;5023216;28;20079;-68
2023/07/19 00:40:33;;;;;;;1.73;1.40;;;;;;;-145.63;57.92;39073.13;5023358;28;20054;-67
2023/07/19 00:42:59;;;;;;;2.05;1.23;;;;;;;-145.63;57.18;39026.19;5022930;28;20038;-68
2023/07/19 00:45:25;;;;;;;4.10;1.67;;;;;;;-145.63;57.32;39114.22;5005497;28;20093;-68
2023/07/19 00:47:53;;;;;;;2.55;1.20;;;;;;;-145.63;57.36;39041.84;5023010;28;20022;-68
2023/07/19 00:50:20;;;;;;;2.58;1.40;;;;;;;-145.63;57.39;39004.69;5023456;28;20076;-67
2023/07/19 00:52:46;;;;;;;2.80;1.33;;;;;;;-145.63;57.72;39024.25;5023111;28;20225;-68
2023/07/19 00:55:12;;;;;;;2.80;1.20;;;;;;;-145.63;57.55;39039.88;5023197;28;20418;-67
2023/07/19 00:57:38;;;;;;;1.67;1.30;;;;;;;-145.63;57.65;39034.03;5023046;28;20108;-68
2023/07/19 01:00:05;;;;;;;1.67;1.27;;;;;;;-145.63;57.73;39034.03;5022890;28;20204;-67
2023/07/19 01:02:32;;;;;;;2.75;1.65;;;;;;;-145.63;57.19;39002.72;5023340;28;20056;-67
2023/07/19 01:04:57;;;;;;;2.45;1.48;;;;;;;-145.63;57.11;39012.50;5022447;28;20030;-68
2023/07/19 01:07:23;;;;;;;2.45;1.60;;;;;;;-145.63;57.63;38996.88;5005496;28;20052;-68
2023/07/19 01:09:50;;;;;;;1.65;1.38;;;;;;;-145.63;57.57;39047.72;5005256;28;20180;-67
2023/07/19 01:12:16;;;;;;;3.30;1.60;;;;;;;-145.63;57.91;39053.59;5023110;28;20026;-66
2023/07/19 01:14:41;;;;;;;2.67;1.40;;;;;;;-145.63;57.53;39065.31;5022813;28;20336;-66
2023/07/19 01:17:07;;;;;;;1.90;1.38;;;;;;;-145.63;57.61;39014.47;5016534;28;20059;-67
2023/07/19 01:19:33;;;;;;;2.45;1.70;;;;;;;-145.63;57.70;39018.38;5022936;28;20053;-67
2023/07/19 01:21:59;;;;;;;3.28;1.55;;;;;;;-145.63;57.73;39039.88;5024746;28;20037;-67
2023/07/19 01:24:25;;;;;;;1.85;1.60;;;;;;;-145.63;58.36;39018.38;5026415;28;20314;-66
2023/07/19 01:26:50;;;;;;;2.38;2.05;;;;;;;-145.63;58.23;39016.44;5026233;28;20025;-67
2023/07/19 01:29:16;;;;;;;3.05;1.70;;;;;;;-145.63;58.02;39010.56;5026245;28;20022;-66
2023/07/19 01:31:41;;;;;;;3.35;1.90;;;;;;;-145.63;58.22;39032.06;5026221;28;20060;-66
2023/07/19 01:34:07;;;;;;;2.75;2.00;;;;;;;-145.63;58.37;39020.34;5026471;28;20033;-66
2023/07/19 01:36:33;;;;;;;2.67;1.98;;;;;;;-145.63;58.82;39028.16;5008991;28;20085;-66
2023/07/19 01:38:59;;;;;;;3.60;2.05;;;;;;;-145.63;58.92;39030.13;5026141;28;20323;-67
2023/07/19 01:41:25;;;;;;;4.30;2.10;;;;;;;-145.63;58.70;39034.03;5008631;28;20022;-64
2023/07/19 01:43:50;;;;;;;3.38;2.03;;;;;;;-145.63;59.05;38989.03;5026414;28;20084;-66
2023/07/19 01:46:16;;;;;;;5.18;2.30;;;;;;;-145.63;59.24;39024.25;5026402;28;20036;-65
2023/07/19 01:48:42;;;;;;;2.53;2.00;;;;;;;-145.63;59.07;39041.84;5025919;28;20041;-65
2023/07/19 01:51:07;;;;;;;3.20;2.08;;;;;;;-145.63;59.52;39034.03;5026207;28;20025;-66
2023/07/19 01:53:33;;;;;;;5.72;2.17;;;;;;;-145.63;60.09;39061.41;5008434;28;20038;-65
2023/07/19 01:55:59;;;;;;;5.95;1.92;;;;;;;-145.63;59.71;39041.84;5026047;28;20076;-65
2023/07/19 01:58:24;;;;;;;2.25;2.05;;;;;;;-145.63;60.42;39051.63;5026142;28;20029;-64
2023/07/19 02:00:53;;;;;;;4.85;2.00;;;;;;;-145.63;60.34;39063.34;5008329;28;20125;-65
2023/07/19 02:03:18;;;;;;;2.10;1.90;;;;;;;-145.63;59.92;39039.88;5025982;28;20316;-65
2023/07/19 02:05:45;;;;;;;2.20;1.92;;;;;;;-145.63;59.95;39071.19;5025810;28;20057;-65
2023/07/19 02:08:10;;;;;;;3.28;1.73;;;;;;;-145.63;59.95;39051.63;5025353;28;20105;-66
2023/07/19 02:10:36;;;;;;;3.42;1.48;;;;;;;-145.63;59.99;39043.81;5025817;28;20041;-66
2023/07/19 02:13:02;;;;;;;3.85;1.63;;;;;;;-145.63;60.33;39045.75;5025806;28;20046;-66
2023/07/19 02:15:29;;;;;;;1.50;1.40;;;;;;;-145.63;59.96;39014.47;5025651;28;20067;-65
2023/07/19 02:17:55;;;;;;;3.67;1.30;;;;;;;-145.63;60.51;39032.06;5018910;28;20038;-63
2023/07/19 02:20:45;;;;;;;1.50;1.10;;;;;;;-145.63;60.53;39034.03;4995986;28;20030;-66
2023/07/19 02:23:13;;;;;;;3.10;0.90;;;;;;;-145.63;61.02;39055.53;5025686;28;20133;-65
2023/07/19 02:25:40;;;;;;;0.82;0.82;;;;;;;-145.63;59.82;39035.97;5025248;28;20033;-65
2023/07/19 02:28:07;;;;;;;3.25;1.20;;;;;;;-145.63;60.42;39043.81;5025489;28;20107;-66
2023/07/19 02:30:32;;;;;;;1.00;0.85;;;;;;;-145.63;60.24;39020.34;5025261;28;20033;-66
2023/07/19 02:32:58;;;;;;;2.15;0.90;;;;;;;-145.63;60.52;39049.66;5024325;28;20041;-67
2023/07/19 02:35:24;;;;;;;1.02;0.80;;;;;;;-145.63;60.92;39034.03;5025274;28;20222;-65
2023/07/19 02:37:49;;;;;;;3.70;0.70;;;;;;;-145.63;59.48;39057.50;5025281;28;20428;-65
2023/07/19 02:40:15;;;;;;;1.35;0.98;;;;;;;-145.63;59.56;39059.44;5025176;28;20022;-65
2023/07/19 02:42:41;;;;;;;2.50;0.90;;;;;;;-145.63;59.74;39018.38;5024552;28;20046;-65
2023/07/19 02:45:07;;;;;;;2.58;0.90;;;;;;;-145.63;60.56;39043.81;5007566;28;20026;-66
2023/07/19 02:47:33;;;;;;;1.02;0.80;;;;;;;-145.63;60.34;39051.63;5024888;28;20025;-65
2023/07/19 02:49:59;;;;;;;4.05;0.98;;;;;;;-145.63;60.36;39090.75;5025007;28;20041;-65
2023/07/19 02:52:24;;;;;;;2.17;1.10;;;;;;;-145.63;60.50;39061.41;5008195;28;20060;-67
2023/07/19 02:54:50;;;;;;;1.48;0.90;;;;;;;-145.63;60.23;39047.72;5018936;28;20038;-66
2023/07/19 02:57:16;;;;;;;0.98;0.90;;;;;;;-145.63;60.47;39051.63;5025354;28;20295;-66
2023/07/19 02:59:42;;;;;;;1.02;1.00;;;;;;;-145.63;59.72;39049.66;5024819;28;20052;-66
2023/07/19 03:02:07;;;;;;;1.40;0.90;;;;;;;-145.63;60.32;39063.34;5024961;28;20036;-66
2023/07/19 03:04:33;;;;;;;1.17;0.98;;;;;;;-145.63;60.57;39088.78;5024175;28;20057;-67
2023/07/19 03:06:59;;;;;;;2.50;1.10;;;;;;;-145.63;60.02;39075.09;5024453;28;20417;-65
2023/07/19 03:09:24;;;;;;;2.47;1.02;;;;;;;-145.63;60.79;39051.63;5024610;28;20022;-66
2023/07/19 03:11:51;;;;;;;2.65;0.88;;;;;;;-145.63;61.03;39069.22;5024535;28;20037;-65
2023/07/19 03:14:17;;;;;;;1.48;1.05;;;;;;;-145.63;61.22;39104.44;5024720;28;20054;-66
2023/07/19 03:16:43;;;;;;;5.43;1.23;;;;;;;-145.63;61.02;39088.78;5024352;28;20030;-66
2023/07/19 03:19:08;;;;;;;1.65;0.90;;;;;;;-145.63;60.52;39077.06;5024707;28;20022;-66
2023/07/19 03:21:34;;;;;;;2.42;0.90;;;;;;;-145.63;61.17;39043.81;5024498;28;20267;-66
2023/07/19 03:24:00;;;;;;;2.10;1.20;;;;;;;-145.63;61.71;39102.47;5024341;28;20052;-65
2023/07/19 03:26:25;;;;;;;2.55;1.10;;;;;;;-145.63;61.46;39098.56;5024468;28;20049;-65
2023/07/19 03:28:51;;;;;;;2.08;1.10;;;;;;;-145.63;61.38;39090.75;5024193;28;20033;-65
2023/07/19 03:31:16;;;;;;;2.20;1.00;;;;;;;-145.63;61.10;39082.91;5023677;28;20057;-65
2023/07/19 03:33:42;;;;;;;3.75;1.23;;;;;;;-145.63;61.61;39088.78;5024148;28;20080;-65
2023/07/19 03:36:08;;;;;;;2.25;1.00;;;;;;;-145.63;61.18;39051.63;5024190;28;20229;-65
2023/07/19 03:38:33;;;;;;;0.80;0.80;;;;;;;-145.63;60.96;39088.78;5024249;28;20022;-65
2023/07/19 03:41:07;;;;;;;2.53;1.02;;;;;;;-145.63;61.19;39082.91;5023847;28;20040;-65
2023/07/19 03:43:33;;;;;;;1.38;1.25;;;;;;;-145.63;61.18;39049.66;5024136;28;20030;-65
2023/07/19 03:45:59;;;;;;;3.80;1.13;;;;;;;-145.63;61.09;38918.66;5006203;28;20075;-66
2023/07/19 03:48:24;;;;;;;1.48;0.90;;;;;;;-145.63;61.36;39149.41;5023693;28;20022;-65
2023/07/19 03:50:58;;;;;;;2.90;0.98;;;;;;;-145.63;61.89;39190.47;5023793;28;20192;-64
2023/07/19 03:53:24;;;;;;;3.35;1.08;;;;;;;-145.63;62.21;39086.81;5023852;28;20072;-65
2023/07/19 03:55:57;;;;;;;3.03;1.38;;;;;;;-145.63;62.43;39131.81;5023972;28;20026;-65
2023/07/19 03:58:24;;;;;;;5.65;1.58;;;;;;;-145.63;62.65;39176.78;5023787;28;20030;-65
2023/07/19 04:00:52;;;;;;;6.03;2.03;;;;;;;-145.63;63.72;39047.72;5023600;28;20036;-65
2023/07/19 04:03:18;;;;;;;5.88;2.53;;;;;;;-145.63;64.18;39114.22;5023189;28;20057;-64
2023/07/19 04:05:44;;;;;;;6.13;2.80;;;;;;;-145.63;63.89;39153.31;5023485;28;20029;-65
2023/07/19 04:08:10;;;;;;;35.95;26.30;;;;;;;-145.63;63.59;39133.75;5023831;28;20025;-65
2023/07/19 04:10:36;;;;;;;6.15;3.35;;;;;;;-145.63;63.51;39176.78;5023658;28;20038;-66
2023/07/19 04:13:02;;;;;;;4.45;2.90;;;;;;;-145.63;63.02;39129.84;5023154;28;20107;-65
2023/07/19 04:15:27;;;;;;;3.33;2.20;;;;;;;-145.63;62.02;39139.63;5023497;28;20137;-65
2023/07/19 04:17:53;;;;;;;6.95;2.53;;;;;;;-145.63;61.80;39127.91;5023376;28;20119;-66
2023/07/19 04:20:19;;;;;;;3.05;2.30;;;;;;;-145.63;61.78;39125.94;5023751;28;20083;-66
2023/07/19 04:22:44;;;;;;;3.00;2.30;;;;;;;-145.63;62.27;39147.44;5005498;28;20049;-66
2023/07/19 04:25:10;;;;;;;2.97;2.58;;;;;;;-145.63;62.04;39133.75;5023652;28;20044;-66
2023/07/19 04:27:35;;;;;;;3.30;2.00;;;;;;;-145.63;62.60;39123.97;5005690;28;20050;-65
2023/07/19 04:30:01;;;;;;;3.83;3.20;;;;;;;-145.63;62.91;39139.63;5023266;28;20034;-66
2023/07/19 04:32:29;;;;;;;3.10;2.38;;;;;;;-145.63;62.87;39133.75;5023241;28;20033;-66
2023/07/19 04:34:55;;;;;;;4.43;2.50;;;;;;;-145.63;62.39;39135.72;5023461;28;20125;-66
2023/07/19 04:37:21;;;;;;;3.78;2.65;;;;;;;-145.63;62.41;39137.69;5023107;28;20042;-64
2023/07/19 04:39:47;;;;;;;2.63;2.13;;;;;;;-145.63;61.95;39153.31;5023452;28;20030;-64
2023/07/19 04:42:12;;;;;;;2.67;2.47;;;;;;;-145.63;62.31;39102.47;5023217;28;20038;-66
2023/07/19 04:44:38;;;;;;;2.35;2.15;;;;;;;-145.63;62.17;39133.75;5023158;28;20025;-64
2023/07/19 04:47:05;;;;;;;3.50;2.47;;;;;;;-145.63;62.64;39122.03;5023059;28;20056;-65
2023/07/19 04:49:31;;;;;;;4.22;2.22;;;;;;;-145.63;62.62;39149.41;5023021;28;20302;-65
2023/07/19 04:51:58;;;;;;;3.45;2.60;;;;;;;-145.63;62.64;39131.81;5022721;28;20060;-65
2023/07/19 04:54:24;;;;;;;2.60;2.40;;;;;;;-145.63;63.14;39149.41;5022827;28;20030;-66
2023/07/19 04:56:50;;;;;;;5.20;2.50;;;;;;;-145.63;62.31;39133.75;5024670;28;20068;-65
2023/07/19 05:02:54;;;;;;;2.97;2.45;;;;;;;-145.63;62.67;39141.59;5078286;28;20649;-66
2023/07/19 05:05:20;;;;;;;2.40;2.20;;;;;;;-145.63;62.35;39133.75;5091317;28;20050;-65
2023/07/19 05:07:46;;;;;;;3.70;2.38;;;;;;;-145.63;62.32;39145.50;5088505;28;20035;-65
2023/07/19 05:10:11;;;;;;;2.67;2.47;;;;;;;-145.63;62.31;39135.72;5090528;28;20036;-64
2023/07/19 05:12:37;;;;;;;4.13;2.30;;;;;;;-145.63;61.88;39131.81;5060553;28;20032;-64
2023/07/19 05:15:03;;;;;;;2.75;2.35;;;;;;;-145.63;62.04;39170.91;5059845;28;20021;-64
2023/07/19 05:17:31;;;;;;;2.13;1.88;;;;;;;-145.63;61.62;39141.59;5073176;28;20505;-65
2023/07/19 05:19:57;;;;;;;2.53;2.20;;;;;;;-145.63;62.12;39157.22;5063201;28;20025;-65
2023/07/19 05:22:22;;;;;;;2.20;2.10;;;;;;;-145.63;61.94;39139.63;5064600;28;20028;-66
2023/07/19 05:24:48;;;;;;;3.30;2.70;;;;;;;-145.63;62.63;39153.31;5078624;28;20217;-64
2023/07/19 05:27:16;;;;;;;3.63;2.88;;;;;;;-145.63;62.72;39157.22;5060099;28;20088;-65
2023/07/19 05:29:43;;;;;;;2.72;2.50;;;;;;;-145.63;62.37;39143.53;5074414;28;20050;-65
2023/07/19 05:32:08;;;;;;;2.58;2.38;;;;;;;-145.63;62.46;39157.22;5069086;28;20036;-65
2023/07/19 05:34:34;;;;;;;3.15;2.35;;;;;;;-145.63;62.35;39168.97;5066345;28;20033;-65
2023/07/19 05:37:00;;;;;;;2.50;2.30;;;;;;;-145.63;62.47;39106.38;5063255;28;20112;-66
2023/07/19 05:39:25;;;;;;;2.90;1.88;;;;;;;-145.63;62.22;39145.50;5058953;28;20036;-65
2023/07/19 05:41:51;;;;;;;4.40;2.33;;;;;;;-145.63;62.02;39118.13;5074504;28;20333;-66
2023/07/19 05:44:17;;;;;;;3.25;2.13;;;;;;;-145.63;62.14;39116.16;5067637;28;20029;-65
2023/07/19 05:46:43;;;;;;;3.17;2.42;;;;;;;-145.63;62.54;39141.59;5059394;28;20048;-64
2023/07/19 05:49:09;;;;;;;3.28;2.97;;;;;;;-145.63;62.85;39133.75;5062300;28;20029;-64
2023/07/19 05:51:34;;;;;;;2.38;2.15;;;;;;;-145.63;62.87;39159.19;5078259;28;20067;-65
2023/07/19 05:54:00;;;;;;;3.67;2.17;;;;;;;-145.63;62.71;39137.69;5060849;28;20026;-65
2023/07/19 05:56:25;;;;;;;4.05;2.40;;;;;;;-145.63;62.48;39135.72;5072660;28;20036;-65
2023/07/19 05:58:51;;;;;;;3.05;1.83;;;;;;;-145.63;62.33;39114.22;5070532;28;20338;-65
2023/07/19 06:01:17;;;;;;;3.45;2.20;;;;;;;-145.63;62.10;39178.75;5062189;28;20052;-64
2023/07/19 06:03:44;;;;;;;3.65;2.08;;;;;;;-145.63;61.96;39149.41;5077726;28;20037;-65
2023/07/19 06:06:10;;;;;;;2.33;2.10;;;;;;;-145.63;62.72;39192.44;5078934;28;20024;-64
2023/07/19 06:08:36;;;;;;;3.42;2.47;;;;;;;-145.63;61.39;39161.13;5058128;28;20337;-65
2023/07/19 06:11:02;;;;;;;2.70;2.50;;;;;;;-145.63;61.77;39161.13;5067821;28;20044;-65
2023/07/19 06:13:28;;;;;;;2.80;2.38;;;;;;;-145.63;61.85;39159.19;5070008;28;20013;-66
2023/07/19 06:15:54;;;;;;;5.40;2.75;;;;;;;-145.63;62.54;39147.44;5065492;28;20025;-65
2023/07/19 06:18:20;;;;;;;4.80;2.50;;;;;;;-145.63;62.09;39172.88;5044677;28;20103;-66
2023/07/19 06:20:45;;;;;;;2.60;2.05;;;;;;;-145.63;61.56;39168.97;5061223;28;20033;-65
2023/07/19 06:23:11;;;;;;;3.30;2.42;;;;;;;-145.63;61.67;39149.41;5053527;28;20112;-65
2023/07/19 06:25:37;;;;;;;4.47;2.20;;;;;;;-145.63;61.06;39155.28;5051662;28;20036;-65
2023/07/19 06:28:03;;;;;;;5.72;2.80;;;;;;;-145.63;61.08;39188.53;5064166;28;20058;-66
2023/07/19 06:30:30;;;;;;;5.35;2.75;;;;;;;-145.63;61.71;39239.38;5048227;28;20040;-66
2023/07/19 06:32:56;;;;;;;3.47;2.50;;;;;;;-145.63;62.25;39194.38;5065089;28;20021;-66
2023/07/19 06:35:22;;;;;;;2.53;2.30;;;;;;;-145.63;61.46;39192.44;5052034;28;20259;-65
2023/07/19 06:37:48;;;;;;;3.70;2.50;;;;;;;-145.63;61.77;39182.66;5048668;28;20333;-65
2023/07/19 06:40:15;;;;;;;5.15;3.33;;;;;;;-145.63;62.33;39153.31;5047677;28;20031;-65
2023/07/19 06:42:42;;;;;;;3.80;2.78;;;;;;;-145.63;62.25;39186.56;5045187;28;20301;-65
2023/07/19 06:45:09;;;;;;;5.13;2.47;;;;;;;-145.63;61.52;39174.84;5043932;28;20053;-65
2023/07/19 06:47:36;;;;;;;5.10;3.30;;;;;;;-145.63;61.58;39194.38;5057421;28;20033;-65
2023/07/19 06:50:03;;;;;;;5.13;2.92;;;;;;;-145.63;61.88;39180.69;5054499;28;20370;-64
2023/07/19 06:52:33;;;;;;;5.53;3.53;;;;;;;-145.63;62.23;38736.78;5056008;28;20043;-64
2023/07/19 06:54:59;;;;;;;4.72;2.60;;;;;;;-145.63;61.69;39200.25;5052170;28;20061;-65
2023/07/19 06:57:24;;;;;;;5.47;2.75;;;;;;;-145.63;61.72;39182.66;5051347;28;20048;-66
2023/07/19 06:59:52;;;;;;;5.65;3.05;;;;;;;-145.63;62.00;39215.91;5059124;28;20310;-65
2023/07/19 07:02:18;;;;;;;3.42;2.75;;;;;;;-145.63;61.94;39204.16;5043582;28;20045;-65
2023/07/19 07:04:45;;;;;;;4.20;2.60;;;;;;;-145.63;62.20;39239.38;5059746;28;20029;-64
2023/07/19 07:07:14;;;;;;;4.03;3.00;;;;;;;-145.63;62.38;39182.66;5062529;28;20337;-66
2023/07/19 07:09:42;;;;;;;6.72;3.58;;;;;;;-145.63;62.50;39186.56;5044360;28;20041;-65
2023/07/19 07:12:09;;;;;;;9.07;4.28;;;;;;;-145.63;61.98;39172.88;5062845;28;20108;-65
2023/07/19 07:14:35;;;;;;;6.40;3.58;;;;;;;-145.63;61.44;39176.78;5051222;28;20029;-66
2023/07/19 07:17:01;;;;;;;6.20;4.38;;;;;;;-145.63;60.64;39176.78;5053416;28;20032;-66
2023/07/19 07:19:26;;;;;;;5.05;3.35;;;;;;;-145.63;61.32;39168.97;5060882;28;20026;-65
2023/07/19 07:21:52;;;;;;;4.18;3.33;;;;;;;-145.63;61.53;39200.25;5042835;28;20025;-66
2023/07/19 07:24:18;;;;;;;3.45;3.15;;;;;;;-145.63;61.09;39194.38;5056178;28;20036;-65
2023/07/19 07:26:43;;;;;;;7.53;4.57;;;;;;;-145.63;61.56;39165.06;5048258;28;20036;-67
2023/07/19 07:29:09;;;;;;;4.32;3.38;;;;;;;-145.63;61.41;39174.84;5049706;28;20072;-66
2023/07/19 07:31:35;;;;;;;4.18;3.47;;;;;;;-145.63;62.17;39153.31;5057399;28;20017;-65
2023/07/19 07:34:01;;;;;;;5.53;3.33;;;;;;;-145.63;62.17;39180.69;5053923;28;20039;-65
2023/07/19 07:36:26;;;;;;;4.30;3.40;;;;;;;-145.63;61.25;39165.06;5050934;28;20029;-66
2023/07/19 07:38:52;;;;;;;5.43;3.58;;;;;;;-145.63;61.77;39172.88;5054455;28;20048;-65
2023/07/19 07:41:17;;;;;;;5.00;3.50;;;;;;;-145.63;61.65;39200.25;5052247;28;20225;-65
2023/07/19 07:43:43;;;;;;;5.15;4.07;;;;;;;-145.63;62.33;39176.78;5054940;28;20025;-66
2023/07/19 07:46:09;;;;;;;4.88;3.88;;;;;;;-145.63;61.85;39196.34;5053262;28;20033;-65
2023/07/19 07:48:35;;;;;;;6.07;4.00;;;;;;;-145.63;61.65;39149.41;5052651;28;20017;-66
2023/07/19 07:51:00;;;;;;;5.75;4.32;;;;;;;-145.63;61.89;39145.50;5056292;28;20237;-65
2023/07/19 07:53:26;;;;;;;5.90;4.63;;;;;;;-145.63;62.06;39178.75;5050624;28;20274;-65
2023/07/19 07:55:52;;;;;;;5.15;4.43;;;;;;;-145.63;61.69;39049.66;5046375;28;20071;-66
2023/07/19 07:58:18;;;;;;;7.93;4.55;;;;;;;-145.63;61.96;39157.22;5052459;28;20025;-65
2023/07/19 08:00:45;;;;;;;4.78;4.32;;;;;;;-145.63;62.67;39168.97;5054566;28;20084;-66
2023/07/19 08:03:11;;;;;;;8.35;5.15;;;;;;;-145.63;62.43;39184.59;5034492;28;20096;-65
2023/07/19 08:05:38;;;;;;;6.60;5.07;;;;;;;-145.63;62.08;39168.97;5052338;28;20052;-66
2023/07/19 08:08:05;;;;;;;7.30;4.78;;;;;;;-145.63;62.11;39161.13;5052759;28;20330;-66
2023/07/19 08:10:40;;;;;;;5.35;4.78;;;;;;;-145.63;62.02;39147.44;5052116;28;20318;-66
2023/07/19 08:13:08;;;;;;;6.90;5.15;;;;;;;-145.63;61.21;39147.44;5052508;28;20037;-66
2023/07/19 08:15:33;;;;;;;8.20;4.80;;;;;;;-145.63;61.44;39153.31;5054229;28;20361;-66
2023/07/19 08:18:00;;;;;;;6.43;5.05;;;;;;;-145.63;61.78;39192.44;5052481;28;20029;-66
2023/07/19 08:20:26;;;;;;;7.30;6.03;;;;;;;-145.63;62.04;39202.22;5052475;28;20035;-66
2023/07/19 08:22:52;;;;;;;7.63;5.35;;;;;;;-145.63;61.80;39133.75;5053095;28;20029;-66
2023/07/19 08:25:21;;;;;;;6.72;5.25;;;;;;;-145.63;62.19;39194.38;5058557;28;20048;-65
2023/07/19 08:27:48;;;;;;;8.88;7.72;;;;;;;-145.63;62.68;39123.97;5050051;28;20021;-66
2023/07/19 08:30:15;;;;;;;6.95;5.18;;;;;;;-145.63;62.33;39153.31;5054109;28;20018;-65
2023/07/19 08:32:45;;;;;;;7.43;5.60;;;;;;;-145.63;62.29;39157.22;5036730;28;20041;-65
2023/07/19 08:35:15;;;;;;;9.20;5.90;;;;;;;-145.63;61.63;39147.44;5050613;28;20029;-65
2023/07/19 08:37:43;;;;;;;5.97;5.38;;;;;;;-145.63;61.72;39153.31;5033861;28;20029;-64
2023/07/19 08:40:13;;;;;;;11.77;6.15;;;;;;;-145.63;61.67;39131.81;5035217;28;20020;-65
2023/07/19 08:42:40;;;;;;;6.18;5.38;;;;;;;-145.63;61.41;39163.09;5052375;28;20115;-65
2023/07/19 08:45:07;;;;;;;6.32;5.72;;;;;;;-145.63;62.03;39127.91;5053296;28;20088;-65
2023/07/19 08:47:34;;;;;;;7.47;5.78;;;;;;;-145.63;61.80;39143.53;5053505;28;20366;-64
2023/07/19 08:50:04;;;;;;;7.18;5.57;;;;;;;-145.63;62.22;39118.13;5054261;28;20044;-64
2023/07/19 08:52:32;;;;;;;8.50;5.40;;;;;;;-145.63;61.54;39114.22;5053600;28;20017;-67
2023/07/19 08:55:02;;;;;;;7.35;5.05;;;;;;;-145.63;61.14;39122.03;5052438;28;20036;-65
2023/07/19 08:57:32;;;;;;;8.23;5.45;;;;;;;-145.63;60.95;39125.94;5053354;28;20029;-65
2023/07/19 08:59:57;;;;;;;7.65;5.10;;;;;;;-145.63;61.02;39122.03;5052229;28;20259;-65
2023/07/19 09:02:23;;;;;;;12.32;6.13;;;;;;;-145.63;61.80;39108.34;5049753;28;20044;-65
2023/07/19 09:05:05;;;;;;;6.95;5.75;;;;;;;-145.63;61.35;39129.84;5054907;28;20084;-67
2023/07/19 09:07:31;;;;;;;;;;;;;;;-145.63;61.75;39118.13;5053651;28;20222;-66
2023/07/19 09:09:57;;;;;;;6.43;4.40;;;;;;;-145.63;60.92;39114.22;5051461;28;19905;-66
2023/07/19 09:12:23;;;;;;;6.28;5.60;;;;;;;-145.63;61.14;39073.13;5054108;28;20364;-66
2023/07/19 09:14:48;;;;;;;5.85;5.25;;;;;;;-145.63;60.43;39131.81;5056573;28;20025;-65
2023/07/19 09:17:14;;;;;;;6.85;5.35;;;;;;;-145.63;60.81;39108.34;5051659;28;20344;-66
2023/07/19 09:19:43;;;;;;;6.75;5.07;;;;;;;-145.63;60.84;39092.69;5047418;28;20080;-66
2023/07/19 09:22:09;;;;;;;7.55;4.78;;;;;;;-145.63;60.36;39098.56;5051033;28;20017;-65
2023/07/19 09:24:35;;;;;;;5.68;4.68;;;;;;;-145.63;60.74;39110.28;5053580;28;20025;-65
2023/07/19 09:27:01;;;;;;;9.52;5.25;;;;;;;-145.63;60.76;39051.63;5049597;28;20036;-65
2023/07/19 09:29:30;;;;;;;6.65;5.10;;;;;;;-145.63;60.03;39041.84;5050663;28;20244;-64
2023/07/19 09:32:01;;;;;;;5.72;5.13;;;;;;;-145.63;61.01;39086.81;5051069;28;20051;-65
2023/07/19 09:34:35;;;;;;;7.80;4.82;;;;;;;-145.63;60.83;39037.94;5050453;28;20061;-67
2023/07/19 09:37:02;;;;;;;7.60;5.47;;;;;;;-145.63;60.36;39041.84;5050026;28;20079;-66
2023/07/19 09:39:29;;;;;;;5.65;4.53;;;;;;;-145.63;59.88;39030.13;5042528;28;20029;-65
2023/07/19 09:41:56;;;;;;;9.07;4.05;;;;;;;-145.63;58.78;39037.94;5042349;28;20048;-65
2023/07/19 09:44:21;;;;;;;4.50;3.75;;;;;;;-145.63;58.05;39045.75;5050849;28;20025;-66
2023/07/19 09:46:48;;;;;;;6.70;4.30;;;;;;;-145.63;59.70;39035.97;5053966;28;20066;-66
2023/07/19 09:49:14;;;;;;;8.55;3.88;;;;;;;-145.63;58.36;39065.31;5055521;28;20044;-66
2023/07/19 09:51:41;;;;;;;6.70;3.67;;;;;;;-145.63;58.41;39012.50;5052773;28;20041;-65
2023/07/19 09:54:12;;;;;;;5.57;4.28;;;;;;;-145.63;58.03;39000.78;5052521;28;20071;-65
2023/07/19 09:56:38;;;;;;;4.37;3.97;;;;;;;-145.63;58.68;38985.13;5054217;28;20029;-65
2023/07/19 09:59:16;;;;;;;5.20;4.15;;;;;;;-145.63;58.22;38969.50;5052424;28;20190;-66
2023/07/19 10:01:43;;;;;;;5.03;3.53;;;;;;;-145.63;56.56;38947.97;5053156;28;20064;-66
2023/07/19 10:04:43;;;;;;;6.88;3.72;;;;;;;-145.63;57.36;38955.81;5057616;28;20032;-66
2023/07/19 10:07:18;;;;;;;7.35;3.20;;;;;;;-145.63;55.62;38989.03;5055475;28;20313;-66
2023/07/19 10:09:45;;;;;;;6.75;3.25;;;;;;;-145.63;54.22;38987.09;5051031;28;20034;-65
2023/07/19 10:12:17;;;;;;;4.88;3.60;;;;;;;-145.63;55.67;38901.03;5057495;28;20029;-65
2023/07/19 10:15:02;;;;;;;3.53;3.22;;;;;;;-145.63;53.94;38914.72;5052584;28;20222;-65
2023/07/19 10:18:00;;;;;;;4.90;2.45;;;;;;;-145.63;52.67;38838.47;5045618;28;20036;-65
2023/07/19 10:20:27;;;;;;;4.80;2.75;;;;;;;-145.63;52.42;38799.34;5056408;28;20314;-65
2023/07/19 10:22:58;;;;;;;4.45;3.40;;;;;;;-145.63;51.41;38846.28;5065263;28;20029;-65
2023/07/19 10:25:27;;;;;;;2.53;2.30;;;;;;;-145.63;49.50;38863.88;5061644;28;20368;-65
2023/07/19 10:28:00;;;;;;;6.30;2.08;;;;;;;-145.63;48.41;38877.56;5065314;28;20063;-66
2023/07/19 10:30:44;;;;;;;6.70;2.67;;;;;;;-145.63;51.29;38871.72;5047700;28;20029;-64
2023/07/19 10:33:22;;;;;;;2.97;2.38;;;;;;;-145.63;52.17;38883.44;5064457;28;20096;-66
2023/07/19 10:35:50;;;;;;;3.13;2.83;;;;;;;-145.63;51.99;38863.88;5051809;28;20246;-66
2023/07/19 10:38:23;;;;;;;3.33;2.42;;;;;;;-145.63;50.49;38842.38;5054548;28;20070;-65
2023/07/19 10:41:00;;;;;;;3.13;2.55;;;;;;;-145.63;50.64;38871.72;5061728;28;20305;-65
2023/07/19 10:43:27;;;;;;;5.65;2.70;;;;;;;-145.63;51.23;38903.00;5058878;28;20029;-65
2023/07/19 10:45:55;;;;;;;4.47;2.70;;;;;;;-145.63;51.04;38879.53;5059016;28;20021;-65
2023/07/19 10:48:24;;;;;;;3.53;2.80;;;;;;;-145.63;51.92;38889.31;5047462;28;20033;-65
2023/07/19 10:50:50;;;;;;;4.38;2.90;;;;;;;-145.63;52.91;38858.03;5058484;28;20031;-65
2023/07/19 10:53:16;;;;;;;3.25;2.67;;;;;;;-145.63;52.81;38815.00;5057567;28;20044;-64
2023/07/19 10:55:44;;;;;;;7.20;2.90;;;;;;;-145.63;52.80;38699.63;5038746;28;20041;-67
2023/07/19 10:58:11;;;;;;;5.32;2.58;;;;;;;-145.63;50.77;38815.00;5047353;28;20041;-65
2023/07/19 11:00:37;;;;;;;3.40;2.72;;;;;;;-145.63;52.15;38793.50;5045168;28;20326;-65
2023/07/19 11:03:05;;;;;;;4.97;2.60;;;;;;;-145.63;50.76;38756.34;5063550;28;20051;-65
2023/07/19 11:05:31;;;;;;;7.13;2.90;;;;;;;-145.63;50.37;38762.22;5063862;28;20576;-65
2023/07/19 11:07:56;;;;;;;3.15;2.40;;;;;;;-145.63;49.66;38789.59;5058414;28;20052;-66
2023/07/19 11:10:27;;;;;;;5.50;2.70;;;;;;;-145.63;49.34;38742.66;5046324;28;20025;-65
2023/07/19 11:12:52;;;;;;;5.30;3.20;;;;;;;-145.63;48.81;38807.19;5064415;28;20305;-65
2023/07/19 11:15:18;;;;;;;5.88;2.55;;;;;;;-145.63;48.84;38822.81;5049596;28;20030;-66
2023/07/19 11:17:44;;;;;;;6.15;2.50;;;;;;;-145.63;48.94;38764.16;5035832;28;20233;-65
2023/07/19 11:20:10;;;;;;;4.28;2.70;;;;;;;-145.63;48.48;38795.44;5047686;28;20029;-67